createdAt,value
2018-05-17T00:00:54.587Z,12.75
2018-05-17T00:03:28.710Z,13.75
2018-05-17T00:05:59.224Z,11.50
2018-05-17T00:08:29.571Z,10.00
2018-05-17T00:11:01.316Z,13.00
2018-05-17T00:13:31.736Z,13.00
2018-05-17T00:16:04.894Z,12.75
2018-05-17T00:18:35.720Z,14.00
2018-05-17T00:21:06.110Z,10.75
2018-05-17T00:23:40.134Z,12.00
2018-05-17T00:26:14.026Z,16.50
2018-05-17T00:28:44.781Z,10.50
2018-05-17T00:31:20.769Z,10.75
2018-05-17T00:33:51.066Z,11.00
2018-05-17T00:36:22.190Z,12.75
2018-05-17T00:38:52.575Z,10.50
2018-05-17T00:41:23.552Z,10.75
2018-05-17T00:43:54.269Z,9.50
2018-05-17T00:46:25.494Z,9.25
2018-05-17T00:48:56.093Z,9.00
2018-05-17T00:51:26.424Z,8.00
2018-05-17T00:53:57.327Z,6.75
2018-05-17T00:56:27.943Z,8.25
2018-05-17T00:58:58.173Z,6.50
2018-05-17T01:01:29.794Z,6.75
2018-05-17T01:04:00.450Z,7.50
2018-05-17T01:06:31.022Z,7.50
2018-05-17T01:09:01.737Z,5.00
2018-05-17T01:11:32.017Z,6.75
2018-05-17T01:14:02.736Z,8.00
2018-05-17T01:16:34.165Z,7.50
2018-05-17T01:19:05.156Z,14.25
2018-05-17T01:21:36.397Z,7.00
2018-05-17T01:24:08.166Z,11.00
2018-05-17T01:26:52.588Z,9.00
2018-05-17T01:29:23.904Z,11.25
2018-05-17T01:31:54.825Z,11.00
2018-05-17T01:34:26.066Z,10.00
2018-05-17T01:37:05.101Z,10.25
2018-05-17T01:39:35.355Z,10.75
2018-05-17T01:42:06.002Z,11.00
2018-05-17T01:44:36.680Z,13.25
2018-05-17T01:47:09.574Z,9.75
2018-05-17T01:49:40.103Z,11.50
2018-05-17T01:52:12.271Z,6.50
2018-05-17T01:54:42.722Z,11.50
2018-05-17T01:57:14.262Z,11.25
2018-05-17T01:59:45.090Z,10.00
2018-05-17T02:02:16.820Z,11.25
2018-05-17T02:04:47.721Z,11.00
2018-05-17T02:07:19.764Z,10.25
2018-05-17T02:09:52.387Z,14.50
2018-05-17T02:12:29.855Z,18.25
2018-05-17T02:15:00.274Z,13.75
2018-05-17T02:17:36.944Z,13.75
2018-05-17T02:20:07.677Z,14.25
2018-05-17T02:22:38.299Z,13.00
2018-05-17T02:25:08.720Z,13.25
2018-05-17T02:27:39.563Z,11.75
2018-05-17T02:30:10.032Z,13.50
2018-05-17T02:32:42.644Z,12.75
2018-05-17T02:35:13.255Z,11.75
2018-05-17T02:37:43.478Z,14.00
2018-05-17T02:40:13.824Z,11.00
2018-05-17T02:42:44.100Z,13.25
2018-05-17T02:45:19.050Z,16.75
2018-05-17T02:47:49.332Z,13.25
2018-05-17T02:50:19.964Z,12.25
2018-05-17T02:52:50.222Z,11.25
2018-05-17T02:55:21.542Z,13.75
2018-05-17T02:57:52.164Z,15.00
2018-05-17T03:00:23.888Z,15.00
2018-05-17T03:02:54.185Z,21.00
2018-05-17T03:05:24.485Z,21.00
2018-05-17T03:07:54.745Z,21.00
2018-05-17T03:10:25.421Z,18.50
2018-05-17T03:13:01.608Z,25.75
2018-05-17T03:15:32.608Z,17.75
2018-05-17T03:18:03.292Z,23.00
2018-05-17T03:20:34.077Z,21.25
2018-05-17T03:23:04.467Z,20.25
2018-05-17T03:25:35.403Z,20.25
2018-05-17T03:28:05.773Z,17.50
2018-05-17T03:30:53.691Z,17.50
2018-05-17T03:33:26.442Z,19.25
2018-05-17T03:35:57.048Z,19.25
2018-05-17T03:38:28.491Z,18.00
2018-05-17T03:40:59.234Z,17.00
2018-05-17T03:43:29.529Z,15.25
2018-05-17T03:46:06.392Z,17.00
2018-05-17T03:48:37.448Z,16.50
2018-05-17T03:51:07.681Z,17.50
2018-05-17T03:53:46.712Z,15.75
2018-05-17T03:56:17.940Z,13.50
2018-05-17T03:58:49.662Z,13.75
2018-05-17T04:02:31.875Z,16.00
2018-05-17T04:06:48.371Z,16.25
2018-05-17T04:09:20.145Z,16.00
2018-05-17T04:11:50.648Z,18.50
2018-05-17T04:14:21.236Z,16.25
2018-05-17T04:16:52.331Z,16.50
2018-05-17T04:19:23.709Z,16.75
2018-05-17T04:21:54.196Z,14.75
2018-05-17T04:24:24.449Z,17.75
2018-05-17T04:26:55.071Z,13.25
2018-05-17T04:29:27.387Z,14.75
2018-05-17T04:31:58.577Z,20.00
2018-05-17T04:34:31.478Z,17.25
2018-05-17T04:37:02.061Z,17.50
2018-05-17T04:39:33.408Z,16.50
2018-05-17T04:42:03.798Z,18.00
2018-05-17T04:44:34.184Z,15.25
2018-05-17T04:47:05.304Z,18.50
2018-05-17T04:49:37.610Z,19.75
2018-05-17T04:52:10.455Z,19.50
2018-05-17T04:54:41.789Z,20.50
2018-05-17T04:57:12.136Z,17.25
2018-05-17T04:59:43.929Z,17.50
2018-05-17T05:02:14.612Z,18.00
2018-05-17T05:04:45.476Z,18.75
2018-05-17T05:07:25.410Z,15.00
2018-05-17T05:09:56.685Z,15.50
2018-05-17T05:12:27.461Z,20.50
2018-05-17T05:14:57.995Z,18.00
2018-05-17T05:17:28.705Z,18.25
2018-05-17T05:19:59.913Z,22.75
2018-05-17T05:22:30.464Z,20.75
2018-05-17T05:25:01.869Z,26.75
2018-05-17T05:27:32.917Z,27.00
2018-05-17T05:30:05.922Z,29.50
2018-05-17T05:32:53.973Z,18.75
2018-05-17T05:35:25.342Z,20.75
2018-05-17T05:37:56.377Z,19.50
2018-05-17T05:43:02.207Z,20.50
2018-05-17T05:45:36.866Z,22.00
2018-05-17T05:48:08.425Z,26.00
2018-05-17T05:50:39.779Z,34.75
2018-05-17T05:53:10.722Z,33.00
2018-05-17T05:55:42.210Z,25.75
2018-05-17T05:58:25.406Z,38.75
2018-05-17T06:00:59.548Z,37.00
2018-05-17T06:03:30.830Z,32.75
2018-05-17T06:06:01.527Z,33.00
2018-05-17T06:08:35.295Z,28.25
2018-05-17T06:11:06.875Z,36.00
2018-05-17T06:13:37.399Z,29.75
2018-05-17T06:16:09.939Z,39.25
2018-05-17T06:18:42.353Z,38.00
2018-05-17T06:21:13.856Z,41.75
2018-05-17T06:23:45.398Z,47.25
2018-05-17T06:26:18.834Z,43.25
2018-05-17T06:28:49.362Z,43.50
2018-05-17T06:31:23.015Z,38.00
2018-05-17T06:33:56.715Z,32.25
2018-05-17T06:36:30.094Z,44.25
2018-05-17T06:39:00.637Z,40.75
2018-05-17T06:41:31.386Z,38.00
2018-05-17T06:44:02.199Z,43.50
2018-05-17T06:46:57.264Z,49.50
2018-05-17T06:49:28.715Z,44.25
2018-05-17T06:52:01.052Z,46.75
2018-05-17T06:54:33.737Z,46.00
2018-05-17T06:57:05.893Z,41.25
2018-05-17T06:59:36.684Z,40.00
2018-05-17T07:02:08.400Z,29.50
2018-05-17T07:04:45.945Z,35.50
2018-05-17T07:07:22.010Z,37.00
2018-05-17T07:09:55.361Z,35.50
2018-05-17T07:12:39.205Z,30.25
2018-05-17T07:15:15.722Z,37.50
2018-05-17T07:17:47.198Z,39.25
2018-05-17T07:20:18.090Z,41.50
2018-05-17T07:22:49.194Z,40.00
2018-05-17T07:25:39.715Z,41.00
2018-05-17T07:28:11.523Z,34.00
2018-05-17T07:33:19.540Z,32.25
2018-05-17T07:35:50.936Z,35.75
2018-05-17T07:38:24.622Z,38.75
2018-05-17T07:40:56.932Z,36.25
2018-05-17T07:43:29.127Z,37.75
2018-05-17T07:46:05.519Z,35.00
2018-05-17T07:48:54.860Z,33.00
2018-05-17T07:51:36.199Z,31.00
2018-05-17T07:54:12.570Z,31.75
2018-05-17T07:56:45.604Z,34.00
2018-05-17T07:59:17.704Z,33.75
2018-05-17T08:01:49.241Z,30.75
2018-05-17T08:04:26.580Z,26.75
2018-05-17T08:07:06.390Z,23.00
2018-05-17T08:09:39.296Z,39.75
2018-05-17T08:12:11.498Z,39.25
2018-05-17T08:14:46.686Z,40.00
2018-05-17T08:17:18.600Z,32.00
2018-05-17T08:19:49.237Z,30.50
2018-05-17T08:22:19.809Z,23.50
2018-05-17T08:27:33.216Z,24.50
2018-05-17T08:30:09.721Z,24.00
2018-05-17T08:32:42.996Z,23.50
2018-05-17T08:35:13.419Z,20.00
2018-05-17T08:37:43.921Z,19.00
2018-05-17T08:40:15.470Z,20.00
2018-05-17T08:42:47.199Z,23.75
2018-05-17T08:45:36.841Z,33.25
2018-05-17T08:51:46.048Z,19.50
2018-05-17T08:54:17.434Z,18.25
2018-05-17T08:56:50.061Z,23.25
2018-05-17T08:59:20.392Z,36.50
2018-05-17T09:04:34.312Z,25.25
2018-05-17T09:07:08.854Z,32.75
2018-05-17T09:09:59.571Z,25.75
2018-05-17T09:12:52.383Z,25.75
2018-05-17T09:15:35.782Z,30.75
2018-05-17T09:18:12.860Z,35.25
2018-05-17T09:20:46.320Z,27.75
2018-05-17T09:23:23.632Z,24.00
2018-05-17T09:25:56.498Z,24.00
2018-05-17T09:28:31.583Z,24.25
2018-05-17T09:31:04.413Z,28.75
2018-05-17T09:33:35.019Z,22.25
2018-05-17T09:36:07.203Z,22.75
2018-05-17T09:38:42.090Z,31.00
2018-05-17T09:41:14.683Z,34.00
2018-05-17T09:43:45.459Z,34.00
2018-05-17T09:46:16.086Z,26.00
2018-05-17T09:49:00.528Z,21.25
2018-05-17T09:51:32.838Z,21.75
2018-05-17T09:54:05.794Z,21.25
2018-05-17T09:56:37.115Z,15.00
2018-05-17T09:59:09.186Z,17.75
2018-05-17T10:01:41.684Z,20.00
2018-05-17T10:04:14.422Z,20.50
2018-05-17T10:06:50.342Z,17.00
2018-05-17T10:09:26.257Z,16.50
2018-05-17T10:12:38.414Z,18.50
2018-05-17T10:15:14.265Z,14.25
2018-05-17T10:17:51.060Z,13.00
2018-05-17T10:20:32.385Z,9.75
2018-05-17T10:23:20.663Z,12.00
2018-05-17T10:25:56.236Z,13.75
2018-05-17T10:28:35.736Z,13.75
2018-05-17T10:31:20.395Z,13.50
2018-05-17T10:33:54.283Z,14.00
2018-05-17T10:36:25.701Z,16.00
2018-05-17T10:39:01.064Z,15.00
2018-05-17T10:41:35.559Z,14.75
2018-05-17T10:44:12.688Z,14.00
2018-05-17T10:46:45.831Z,16.00
2018-05-17T10:49:17.060Z,17.25
2018-05-17T10:51:47.652Z,14.00
2018-05-17T10:54:19.013Z,12.00
2018-05-17T10:56:49.857Z,10.25
2018-05-17T10:59:22.535Z,12.00
2018-05-17T11:01:58.835Z,12.75
2018-05-17T11:04:35.976Z,11.50
2018-05-17T11:07:13.485Z,11.25
2018-05-17T11:09:44.166Z,12.75
2018-05-17T11:12:16.517Z,12.50
2018-05-17T11:14:47.766Z,12.25
2018-05-17T11:17:19.482Z,12.00
2018-05-17T11:19:50.833Z,13.75
2018-05-17T11:22:28.321Z,13.50
2018-05-17T11:25:00.113Z,13.25
2018-05-17T11:27:30.953Z,11.75
2018-05-17T11:30:07.730Z,12.50
2018-05-17T11:32:38.967Z,13.25
2018-05-17T11:35:25.356Z,11.00
2018-05-17T11:38:25.805Z,10.75
2018-05-17T11:41:05.784Z,12.50
2018-05-17T11:43:38.567Z,12.50
2018-05-17T11:46:23.221Z,10.00
2018-05-17T11:49:15.455Z,11.00
2018-05-17T11:55:20.269Z,13.00
2018-05-17T11:58:02.634Z,11.25
2018-05-17T12:00:46.729Z,11.25
2018-05-17T12:03:17.843Z,9.25
2018-05-17T12:05:49.853Z,12.25
2018-05-17T12:08:22.793Z,10.00
2018-05-17T12:10:57.677Z,12.00
2018-05-17T12:13:36.333Z,10.50
2018-05-17T12:16:24.876Z,12.50
2018-05-17T12:18:58.333Z,13.25
2018-05-17T12:26:10.395Z,12.75
2018-05-17T12:28:41.134Z,10.75
2018-05-17T12:31:14.612Z,11.00
2018-05-17T12:33:48.345Z,10.00
2018-05-17T12:36:27.372Z,10.00
2018-05-17T12:39:00.064Z,10.00
2018-05-17T12:41:39.024Z,9.75
2018-05-17T12:44:11.186Z,9.50
2018-05-17T12:46:48.367Z,10.00
2018-05-17T12:49:45.553Z,10.25
2018-05-17T12:52:18.396Z,11.00
2018-05-17T12:54:53.871Z,11.00
2018-05-17T12:57:24.389Z,11.00
2018-05-17T12:59:59.518Z,11.00
2018-05-17T13:02:33.693Z,10.25
2018-05-17T13:05:06.909Z,10.75
2018-05-17T13:07:40.133Z,11.00
2018-05-17T13:10:21.342Z,10.00
2018-05-17T13:13:01.209Z,11.50
2018-05-17T13:15:43.252Z,9.25
2018-05-17T13:18:16.393Z,10.00
2018-05-17T13:20:49.349Z,12.50
2018-05-17T13:23:22.034Z,10.75
2018-05-17T13:25:55.598Z,11.25
2018-05-17T13:28:30.814Z,9.00
2018-05-17T13:31:01.861Z,9.50
2018-05-17T13:33:35.374Z,9.00
2018-05-17T13:36:12.262Z,8.50
2018-05-17T13:38:45.514Z,10.00
2018-05-17T13:41:23.333Z,12.25
2018-05-17T13:43:54.764Z,9.75
2018-05-17T13:46:26.002Z,8.75
2018-05-17T13:48:57.833Z,8.50
2018-05-17T13:51:29.042Z,7.25
2018-05-17T13:53:59.451Z,8.50
2018-05-17T13:56:30.686Z,8.00
2018-05-17T13:59:07.555Z,9.00
2018-05-17T14:01:39.861Z,8.00
2018-05-17T14:05:34.194Z,9.25
2018-05-17T14:08:06.952Z,9.00
2018-05-17T14:10:38.403Z,12.00
2018-05-17T14:13:18.037Z,12.00
2018-05-17T14:15:51.026Z,9.75
2018-05-17T14:18:30.844Z,7.75
2018-05-17T14:21:08.078Z,10.00
2018-05-17T14:23:41.505Z,8.00
2018-05-17T14:26:27.961Z,8.50
2018-05-17T14:29:02.643Z,8.00
2018-05-17T14:31:33.715Z,9.25
2018-05-17T14:34:24.869Z,9.75
2018-05-17T14:36:55.411Z,9.50
2018-05-17T14:39:27.841Z,10.50
2018-05-17T14:42:08.124Z,8.00
2018-05-17T14:44:42.672Z,10.00
2018-05-17T14:47:24.808Z,11.00
2018-05-17T14:50:03.167Z,8.75
2018-05-17T14:52:54.827Z,9.00
2018-05-17T14:55:31.120Z,10.75
2018-05-17T14:58:07.889Z,10.25
2018-05-17T15:00:48.994Z,9.50
2018-05-17T15:03:26.644Z,9.00
2018-05-17T15:06:05.302Z,8.75
2018-05-17T15:08:38.141Z,10.00
2018-05-17T15:11:14.757Z,9.00
2018-05-17T15:13:45.094Z,8.00
2018-05-17T15:16:25.341Z,8.75
2018-05-17T15:18:57.404Z,8.00
2018-05-17T15:21:28.511Z,10.00
2018-05-17T15:24:00.471Z,8.75
2018-05-17T15:26:35.213Z,10.00
2018-05-17T15:29:07.934Z,11.00
2018-05-17T15:31:51.091Z,10.00
2018-05-17T15:34:25.464Z,8.50
2018-05-17T15:37:25.662Z,10.00
2018-05-17T15:40:05.510Z,10.00
2018-05-17T15:42:45.581Z,11.75
2018-05-17T15:45:26.876Z,11.25
2018-05-17T15:48:00.137Z,10.50
2018-05-17T15:50:31.834Z,10.00
2018-05-17T15:53:03.952Z,10.00
2018-05-17T15:55:37.393Z,11.00
2018-05-17T15:58:07.920Z,10.75
2018-05-17T16:00:41.110Z,12.00
2018-05-17T16:03:15.378Z,12.00
2018-05-17T16:05:47.966Z,11.00
2018-05-17T16:08:21.613Z,8.00
2018-05-17T16:11:10.433Z,11.00
2018-05-17T16:13:43.106Z,10.50
2018-05-17T16:16:18.280Z,10.50
2018-05-17T16:18:50.887Z,12.25
2018-05-17T16:21:25.173Z,12.00
2018-05-17T16:23:57.171Z,11.75
2018-05-17T16:26:44.841Z,10.25
2018-05-17T16:29:49.973Z,11.50
2018-05-17T16:32:34.338Z,10.50
2018-05-17T16:35:05.369Z,10.00
2018-05-17T16:37:38.506Z,10.50
2018-05-17T16:40:12.654Z,10.00
2018-05-17T16:42:49.727Z,9.75
2018-05-17T16:45:25.980Z,12.25
2018-05-17T16:48:08.806Z,11.00
2018-05-17T16:50:52.465Z,10.75
2018-05-17T16:53:58.576Z,11.25
2018-05-17T16:56:40.723Z,10.75
2018-05-17T16:59:39.564Z,14.75
2018-05-17T17:02:18.879Z,11.75
2018-05-17T17:04:51.364Z,12.75
2018-05-17T17:07:27.287Z,11.75
2018-05-17T17:10:20.933Z,12.25
2018-05-17T17:12:53.883Z,10.00
2018-05-17T17:18:10.492Z,8.75
2018-05-17T17:20:52.200Z,9.50
2018-05-17T17:23:27.782Z,10.50
2018-05-17T17:26:08.990Z,13.75
2018-05-17T17:28:48.140Z,10.00
2018-05-17T17:31:27.708Z,12.25
2018-05-17T17:34:01.184Z,11.00
2018-05-17T17:36:32.649Z,9.25
2018-05-17T17:39:04.757Z,10.00
2018-05-17T17:41:38.830Z,11.75
2018-05-17T17:44:11.135Z,10.50
2018-05-17T17:46:41.771Z,9.75
2018-05-17T17:49:14.797Z,11.00
2018-05-17T17:51:46.567Z,11.25
2018-05-17T17:54:23.927Z,10.50
2018-05-17T17:56:55.585Z,12.25
2018-05-17T17:59:47.353Z,13.25
2018-05-17T18:02:33.466Z,9.75
2018-05-17T18:05:06.270Z,9.75
2018-05-17T18:08:12.423Z,9.75
2018-05-17T18:10:44.503Z,12.75
2018-05-17T18:13:36.846Z,11.50
2018-05-17T18:16:11.083Z,13.00
2018-05-17T18:18:48.860Z,10.00
2018-05-17T18:21:20.730Z,11.50
2018-05-17T18:23:54.059Z,10.75
2018-05-17T18:26:28.192Z,9.75
2018-05-17T18:28:58.816Z,12.75
2018-05-17T18:31:54.980Z,10.25
2018-05-17T18:34:28.822Z,12.00
2018-05-17T18:36:59.326Z,14.75
2018-05-17T18:39:31.074Z,10.50
2018-05-17T18:42:05.889Z,9.25
2018-05-17T18:44:37.003Z,13.75
2018-05-17T18:47:08.185Z,13.00
2018-05-17T18:49:38.735Z,14.00
2018-05-17T18:52:09.298Z,13.00
2018-05-17T18:54:39.857Z,9.00
2018-05-17T18:57:10.873Z,12.00
2018-05-17T18:59:43.145Z,11.25
2018-05-17T19:02:20.753Z,12.00
2018-05-17T19:04:51.913Z,10.75
2018-05-17T19:07:24.008Z,13.00
2018-05-17T19:09:57.871Z,13.00
2018-05-17T19:12:29.962Z,13.00
2018-05-17T19:15:00.515Z,11.50
2018-05-17T19:17:33.399Z,13.75
2018-05-17T19:20:09.938Z,12.25
2018-05-17T19:22:42.058Z,13.00
2018-05-17T19:25:12.970Z,15.00
2018-05-17T19:27:46.111Z,16.75
2018-05-17T19:30:32.478Z,12.75
2018-05-17T19:33:04.596Z,12.50
2018-05-17T19:35:35.797Z,14.75
2018-05-17T19:38:06.391Z,17.00
2018-05-17T19:40:39.712Z,14.50
2018-05-17T19:43:13.752Z,16.00
2018-05-17T19:45:45.231Z,13.00
2018-05-17T19:48:15.853Z,11.25
2018-05-17T19:50:46.694Z,12.25
2018-05-17T19:53:18.960Z,14.00
2018-05-17T19:55:49.669Z,14.00
2018-05-17T19:58:20.818Z,17.00
2018-05-17T20:00:51.307Z,12.00
2018-05-17T20:03:22.698Z,13.25
2018-05-17T20:06:04.894Z,13.00
2018-05-17T20:08:35.851Z,11.25
2018-05-17T20:11:07.384Z,10.75
2018-05-17T20:13:38.844Z,12.50
2018-05-17T20:16:09.918Z,11.25
2018-05-17T20:18:41.613Z,16.50
2018-05-17T20:21:12.427Z,12.75
2018-05-17T20:23:43.211Z,15.25
2018-05-17T20:26:13.578Z,13.75
2018-05-17T20:28:45.606Z,13.00
2018-05-17T20:31:17.001Z,14.00
2018-05-17T20:33:47.710Z,16.00
2018-05-17T20:36:34.017Z,17.75
2018-05-17T20:39:07.669Z,15.00
2018-05-17T20:41:38.532Z,15.25
2018-05-17T20:44:09.621Z,16.00
2018-05-17T20:46:42.869Z,13.75
2018-05-17T20:49:14.402Z,13.25
2018-05-17T20:51:45.519Z,14.50
2018-05-17T20:54:15.979Z,14.50
2018-05-17T20:56:46.903Z,14.25
2018-05-17T20:59:18.316Z,15.25
2018-05-17T21:01:49.064Z,14.00
2018-05-17T21:04:22.575Z,15.50
2018-05-17T21:06:53.262Z,13.75
2018-05-17T21:09:25.708Z,16.50
2018-05-17T21:12:00.323Z,12.25
2018-05-17T21:14:32.283Z,13.00
2018-05-17T21:17:02.953Z,14.25
2018-05-17T21:19:36.711Z,14.50
2018-05-17T21:22:07.578Z,13.75
2018-05-17T21:24:38.833Z,16.00
2018-05-17T21:27:12.558Z,15.25
2018-05-17T21:29:44.104Z,15.25
2018-05-17T21:32:21.743Z,13.50
2018-05-17T21:34:58.831Z,17.25
2018-05-17T21:37:32.505Z,18.00
2018-05-17T21:40:03.393Z,13.75
2018-05-17T21:42:34.488Z,17.00
2018-05-17T21:45:19.072Z,18.25
2018-05-17T21:47:50.259Z,15.50
2018-05-17T21:50:22.760Z,17.75
2018-05-17T21:52:53.442Z,15.00
2018-05-17T21:55:26.228Z,15.75
2018-05-17T21:57:59.491Z,15.00
2018-05-17T22:00:36.148Z,14.00
2018-05-17T22:03:08.055Z,17.00
2018-05-17T22:05:39.689Z,14.75
2018-05-17T22:08:14.634Z,13.50
2018-05-17T22:10:47.023Z,15.25
2018-05-17T22:13:18.485Z,10.50
2018-05-17T22:15:54.192Z,12.25
2018-05-17T22:18:26.958Z,16.50
2018-05-17T22:20:58.013Z,13.50
2018-05-17T22:23:28.863Z,16.00
2018-05-17T22:25:59.764Z,12.50
2018-05-17T22:28:30.368Z,14.75
2018-05-17T22:31:01.521Z,15.50
2018-05-17T22:33:32.491Z,16.00
2018-05-17T22:36:08.826Z,13.00
2018-05-17T22:38:39.086Z,12.00
2018-05-17T22:41:09.599Z,15.75
2018-05-17T22:43:50.830Z,15.50
2018-05-17T22:46:22.309Z,16.00
2018-05-17T22:48:56.379Z,18.50
2018-05-17T22:51:32.624Z,20.25
2018-05-17T22:54:04.465Z,16.75
2018-05-17T22:56:48.727Z,16.00
2018-05-17T22:59:19.361Z,22.25
2018-05-17T23:02:04.891Z,18.75
2018-05-17T23:04:36.486Z,27.50
2018-05-17T23:07:07.306Z,27.00
2018-05-17T23:09:41.302Z,26.75
2018-05-17T23:12:12.551Z,35.00
2018-05-17T23:14:55.211Z,42.00
2018-05-17T23:17:27.743Z,43.00
2018-05-17T23:19:58.512Z,46.00
2018-05-17T23:22:37.296Z,44.25
2018-05-17T23:25:12.285Z,50.75
2018-05-17T23:27:44.126Z,50.00
2018-05-17T23:30:17.223Z,46.50
2018-05-17T23:32:47.625Z,56.00
2018-05-17T23:35:18.972Z,56.50
2018-05-17T23:37:51.015Z,58.25
2018-05-17T23:40:30.995Z,59.50
2018-05-17T23:43:05.010Z,58.25
2018-05-17T23:45:36.115Z,61.00
2018-05-17T23:48:08.069Z,60.50
2018-05-17T23:50:43.533Z,57.50
2018-05-17T23:53:14.526Z,61.75
2018-05-17T23:55:45.781Z,62.00
2018-05-17T23:58:16.379Z,56.75
